Address 0x0dbfc0d2f3afa09d1eec69a726f6c78d92fa15f1

 
 
Txn Hash Method
Block
From
To
Value [Txn Fee]
0xbe51830a78177c3bae321fe263c575fe93fb3de5113c824de90fce546705c9dfDeposit286142132022-05-22 3:19:011 hr 6 mins ago0x0dbfc0d2f3afa09d1eec69a726f6c78d92fa15f1OUT 0xd814b26554204245a30f8a42c289af582421bf040 MATIC0.006639724 52
0x1b03c9b8be74f39134bc56ab055b97cf86a4dee9eae6e8822ac1b7755a4ea623Approve286142022022-05-22 3:18:351 hr 6 mins ago0x0dbfc0d2f3afa09d1eec69a726f6c78d92fa15f1OUT 0xde990994309bc08e57aca82b1a19170ad84323e80 MATIC0.001547745028 33.54308502
0x8898136862ca1c7cd2d050b0ce6d30bc3d20745f322f36e1dc9efd492e45e697Add Liquidity286141752022-05-22 3:17:411 hr 7 mins ago0x0dbfc0d2f3afa09d1eec69a726f6c78d92fa15f1OUT SushiSwap: Router0 MATIC0.006034374478 30.366827427
0x3a3287daa6a31011531e7acaef97522e9e1c77286725ed243acdb4bd3897fa70Swap286141502022-05-22 3:16:511 hr 8 mins ago0x0dbfc0d2f3afa09d1eec69a726f6c78d92fa15f1OUT Metamask: Swap Router0 MATIC0.016193279111 34.398016645
0x6f8d4c7a6aa2a45baa767ff45d12853b5ebb978076e13e30896f09a5ce1a2e3bHarvest All286140352022-05-22 3:12:531 hr 12 mins ago0x0dbfc0d2f3afa09d1eec69a726f6c78d92fa15f1OUT 0xd814b26554204245a30f8a42c289af582421bf040 MATIC0.004289312 32
0xc25972982213db7502b317964dbd06e8ef3716645b879314bf8ac6279f681026Deposit285966492022-05-21 17:10:3911 hrs 14 mins ago0x0dbfc0d2f3afa09d1eec69a726f6c78d92fa15f1OUT 0xd814b26554204245a30f8a42c289af582421bf040 MATIC0.003990208 32
0xf4b8be14241d575c276a302a2eeaf1c9ee86ff5ff732ccf398aaa5c4d79b92a0Deposit285966462022-05-21 17:10:3311 hrs 14 mins ago0x0dbfc0d2f3afa09d1eec69a726f6c78d92fa15f1OUT 0xd814b26554204245a30f8a42c289af582421bf040 MATIC0.004085984 32
0x43b93aea8b43072013549d8c248f9a47c313c07231ba7b5e085bd4b0207cad5cApprove285965892022-05-21 17:08:3511 hrs 16 mins ago0x0dbfc0d2f3afa09d1eec69a726f6c78d92fa15f1OUT 0xde990994309bc08e57aca82b1a19170ad84323e80 MATIC0.000814551679 31.039999989
0xe3412c88e193fc60c881b0ca63b8e1de7f1b16eb6a938099bf4930faae1ab486Approve285965832022-05-21 17:08:2311 hrs 16 mins ago0x0dbfc0d2f3afa09d1eec69a726f6c78d92fa15f1OUT 0xde990994309bc08e57aca82b1a19170ad84323e80 MATIC0.001403602727 30.419200027
0xf9ae7e80838209062e03312da9ac5ba2e0c81be9d566a00c542b961a8ac7402cAdd Liquidity285965662022-05-21 17:07:4911 hrs 17 mins ago0x0dbfc0d2f3afa09d1eec69a726f6c78d92fa15f1OUT SushiSwap: Router0 MATIC0.005975750964 30.070000022
0x8d8509b82741cdbe11df21a2e9abcda575276ae8d39ce48ca72a4dff94444f4bSwap285965432022-05-21 17:06:5911 hrs 18 mins ago0x0dbfc0d2f3afa09d1eec69a726f6c78d92fa15f1OUT Metamask: Swap Router0 MATIC0.007390046719 31.359999997
0x1a3d0542e1f235c27aa80f28a2f3a2e683fe4f192fbb820d4473b6274f547f4bHarvest All285964302022-05-21 17:03:0911 hrs 21 mins ago0x0dbfc0d2f3afa09d1eec69a726f6c78d92fa15f1OUT 0xd814b26554204245a30f8a42c289af582421bf040 MATIC0.00670205 50
0xb2f487d0befd078f55249993f6fad25d3e1f7086fe9d4bc1e192bfa94a516608Deposit285811362022-05-21 8:10:2220 hrs 14 mins ago0x0dbfc0d2f3afa09d1eec69a726f6c78d92fa15f1OUT 0xd814b26554204245a30f8a42c289af582421bf040 MATIC0.00638435 50
0x2e4d028a760ac3c7901f1fbad85c93178726296f72254e3386d99185f67c332fApprove285811282022-05-21 8:10:0620 hrs 14 mins ago0x0dbfc0d2f3afa09d1eec69a726f6c78d92fa15f1OUT 0xde990994309bc08e57aca82b1a19170ad84323e80 MATIC0.001432247679 31.039999999
0x751a49df8884eee0986780eb2c026a0aa527821d0503ed1b351c38663ef9ef39Add Liquidity285810932022-05-21 8:08:5220 hrs 16 mins ago0x0dbfc0d2f3afa09d1eec69a726f6c78d92fa15f1OUT SushiSwap: Router0 MATIC0.005735521729 30.069999996
0x6bb724eabca8f31ece8fa0090c42cdc9f36ea4f43b16c36d17eabfedb415ec47Swap285808442022-05-21 8:00:1820 hrs 24 mins ago0x0dbfc0d2f3afa09d1eec69a726f6c78d92fa15f1OUT Metamask: Swap Router0 MATIC0.008678212703 36.826391049
0xe1fe0b86342b694f33ec78e03ce973cfe1b995f7881c6586fbfa762c97078276Harvest All285805072022-05-21 7:45:2420 hrs 39 mins ago0x0dbfc0d2f3afa09d1eec69a726f6c78d92fa15f1OUT 0xd814b26554204245a30f8a42c289af582421bf040 MATIC0.00670205 50
0x6ca1894e23898ca1294e26ca5c4c80f092e08d04f664073ddd9bf75b1dcef8beDeposit285735832022-05-21 3:42:121 day 42 mins ago0x0dbfc0d2f3afa09d1eec69a726f6c78d92fa15f1OUT 0xd814b26554204245a30f8a42c289af582421bf040 MATIC0.00638435 50
0x6cb85ad94e7eef138691fac740585dab78cc71e525debf424b2bc23b8842e096Approve285734382022-05-21 3:37:101 day 47 mins ago0x0dbfc0d2f3afa09d1eec69a726f6c78d92fa15f1OUT 0xde990994309bc08e57aca82b1a19170ad84323e80 MATIC0.000857542815 32.678256804
0xce68ded1ed60cd03b7646fb00d26cab311764d87c754cbc3c3ff60ee42b24241Approve285734312022-05-21 3:36:561 day 48 mins ago0x0dbfc0d2f3afa09d1eec69a726f6c78d92fa15f1OUT 0xde990994309bc08e57aca82b1a19170ad84323e80 MATIC0.001507840125 32.678256804
0xbb5898a32360951017cca8f9614290f1db3b39177926e8ce3c1d5260ff3e4bdbAdd Liquidity285733312022-05-21 3:33:321 day 51 mins ago0x0dbfc0d2f3afa09d1eec69a726f6c78d92fa15f1OUT SushiSwap: Router0 MATIC0.006902371722 34.732758959
0x50bcee67edd119810727097642e4ee0962a130e9b26f2749dadb0ddc58baa3c2Swap285732882022-05-21 3:32:021 day 53 mins ago0x0dbfc0d2f3afa09d1eec69a726f6c78d92fa15f1OUT Metamask: Swap Router0 MATIC0.008107235615 34.40342376
0x007d8b970e8d8dd225b06c44723807a22d68f721fd810d61c07b7cc279094159Swap285732052022-05-21 3:29:121 day 55 mins ago0x0dbfc0d2f3afa09d1eec69a726f6c78d92fa15f1OUT Metamask: Swap Router0 MATIC0.013469074919 41.159999998
0x317ab75f83973d2408e6d3c0c6c56a7d5a1ff05cd7cd8f2ab99d4b56a3fb641cSwap285709382022-05-21 2:11:141 day 2 hrs ago0x0dbfc0d2f3afa09d1eec69a726f6c78d92fa15f1OUT Metamask: Swap Router0 MATIC0.0092375584 39.2
0xee98c12cbb29d875da44f1666b300d1849630acd82faeef7b4eeb36fafe9003eHarvest All285708052022-05-21 2:06:401 day 2 hrs ago0x0dbfc0d2f3afa09d1eec69a726f6c78d92fa15f1OUT 0xd814b26554204245a30f8a42c289af582421bf040 MATIC0.004649827968 34.689594739
[ Download CSV Export 
Latest 2 internal transactions
Parent Txn Hash Block From To Value
0x7a98767e2ae25d0e170337ced81d2d32fb1aa4649e2d5054ef4cc275c70010be283869762022-05-16 11:20:425 days 17 hrs ago 0xc590175e458b83680867afd273527ff58f74c02b0x0dbfc0d2f3afa09d1eec69a726f6c78d92fa15f18.62737011136311416 MATIC
0x10cc36afd65c577346f77a0c0fe5d6bee5a8dfec1ff454c0e0038a406f645933283866592022-05-16 11:09:485 days 17 hrs ago 0xc590175e458b83680867afd273527ff58f74c02b0x0dbfc0d2f3afa09d1eec69a726f6c78d92fa15f14.288193070265551376 MATIC
[ Download CSV Export 
Loading

Contract Name:
0 MATIC

Compiler Version
0

Optimization Enabled:
0 MATIC

Other Settings:
-NA-
Block Transaction Gas Used Reward
Age Block Fee Address BC Fee Address Voting Power Jailed Incoming
Block Uncle Number Difficulty Gas Used Reward
Loading
Loading
Make sure to use the "Vote Down" button for any spammy posts, and the "Vote Up" for interesting conversations.